createdAt,value
2019-03-02T00:00:44.752Z,34.90
2019-03-02T00:03:15.587Z,33.50
2019-03-02T00:05:45.988Z,28.92
2019-03-02T00:08:42.839Z,26.15
2019-03-02T00:11:17.824Z,28.57
2019-03-02T00:13:46.524Z,29.80
2019-03-02T00:16:16.408Z,31.75
2019-03-02T00:18:48.155Z,30.65
2019-03-02T00:21:31.380Z,31.10
2019-03-02T00:24:03.483Z,32.35
2019-03-02T00:26:45.684Z,33.95
2019-03-02T00:29:13.072Z,29.73
2019-03-02T00:31:41.759Z,31.40
2019-03-02T00:34:10.411Z,29.23
2019-03-02T00:36:39.167Z,32.28
2019-03-02T00:39:08.789Z,29.47
2019-03-02T00:41:38.667Z,28.50
2019-03-02T00:44:07.827Z,31.87
2019-03-02T00:46:36.452Z,29.90
2019-03-02T00:49:05.232Z,29.18
2019-03-02T00:51:33.877Z,27.52
2019-03-02T00:54:02.636Z,31.00
2019-03-02T00:56:31.274Z,29.87
2019-03-02T00:59:00.613Z,28.95
2019-03-02T01:01:30.577Z,29.25
2019-03-02T01:03:59.253Z,29.32
2019-03-02T01:06:27.909Z,31.57
2019-03-02T01:08:57.490Z,33.33
2019-03-02T01:11:26.112Z,35.10
2019-03-02T01:13:56.846Z,34.67
2019-03-02T01:16:25.271Z,32.78
2019-03-02T01:18:59.867Z,31.93
2019-03-02T01:21:28.506Z,30.82
2019-03-02T01:23:59.731Z,32.90
2019-03-02T01:26:27.586Z,29.77
2019-03-02T01:28:56.282Z,33.88
2019-03-02T01:31:24.941Z,32.50
2019-03-02T01:33:53.594Z,34.83
2019-03-02T01:36:22.273Z,29.80
2019-03-02T01:38:53.989Z,32.90
2019-03-02T01:41:21.508Z,31.02
2019-03-02T01:43:50.183Z,28.30
2019-03-02T01:46:18.821Z,30.63
2019-03-02T01:48:47.456Z,30.33
2019-03-02T01:51:16.114Z,32.25
2019-03-02T01:53:45.711Z,31.27
2019-03-02T01:56:15.195Z,28.60
2019-03-02T01:58:43.807Z,27.17
2019-03-02T02:01:12.462Z,31.87
2019-03-02T02:03:43.672Z,22.90
2019-03-02T02:06:11.611Z,29.17
2019-03-02T02:08:40.246Z,29.27
2019-03-02T02:11:08.962Z,32.03
2019-03-02T02:13:38.971Z,27.90
2019-03-02T02:16:07.947Z,29.40
2019-03-02T02:18:36.591Z,31.43
2019-03-02T02:21:05.339Z,27.75
2019-03-02T02:23:33.983Z,29.77
2019-03-02T02:26:02.715Z,27.50
2019-03-02T02:28:32.368Z,28.97
2019-03-02T02:31:06.047Z,26.35
2019-03-02T02:33:32.104Z,29.48
2019-03-02T02:36:00.841Z,29.60
2019-03-02T02:38:29.459Z,30.27
2019-03-02T02:40:58.102Z,30.20
2019-03-02T02:43:26.704Z,27.80
2019-03-02T02:45:55.331Z,28.57
2019-03-02T02:48:26.256Z,29.65
2019-03-02T02:50:54.401Z,27.55
2019-03-02T02:53:23.063Z,24.63
2019-03-02T02:55:51.731Z,26.33
2019-03-02T02:58:20.450Z,25.48
2019-03-02T03:00:50.013Z,26.23
2019-03-02T03:03:20.688Z,29.95
2019-03-02T03:05:54.143Z,23.85
2019-03-02T03:08:20.395Z,27.52
2019-03-02T03:10:49.031Z,28.07
2019-03-02T03:13:17.684Z,27.22
2019-03-02T03:15:48.404Z,28.32
2019-03-02T03:18:17.099Z,26.62
2019-03-02T03:20:48.866Z,24.92
2019-03-02T03:23:20.073Z,26.55
2019-03-02T03:25:46.625Z,28.80
2019-03-02T03:28:15.303Z,26.20
2019-03-02T03:30:44.098Z,26.53
2019-03-02T03:33:12.725Z,29.35
2019-03-02T03:35:41.385Z,26.87
2019-03-02T03:38:10.030Z,26.23
2019-03-02T03:40:38.739Z,24.30
2019-03-02T03:43:07.452Z,27.57
2019-03-02T03:45:42.271Z,25.85
2019-03-02T03:48:06.581Z,26.02
2019-03-02T03:50:35.272Z,26.65
2019-03-02T03:53:03.986Z,29.90
2019-03-02T03:55:32.662Z,29.15
2019-03-02T03:58:02.571Z,26.20
2019-03-02T04:00:34.203Z,29.43
2019-03-02T04:03:01.748Z,29.45
2019-03-02T04:05:30.470Z,30.10
2019-03-02T04:07:59.109Z,28.92
2019-03-02T04:10:28.066Z,26.30
2019-03-02T04:13:03.802Z,24.13
2019-03-02T04:15:27.528Z,23.38
2019-03-02T04:17:56.230Z,25.23
2019-03-02T04:20:31.106Z,24.80
2019-03-02T04:23:00.581Z,25.30
2019-03-02T04:25:29.438Z,24.57
2019-03-02T04:27:58.063Z,24.87
2019-03-02T04:30:31.139Z,21.15
2019-03-02T04:32:57.066Z,20.65
2019-03-02T04:35:25.800Z,21.87
2019-03-02T04:37:56.499Z,22.70
2019-03-02T04:40:27.920Z,21.25
2019-03-02T04:42:55.190Z,21.10
2019-03-02T04:45:27.930Z,19.90
2019-03-02T04:47:59.986Z,19.63
2019-03-02T04:50:28.384Z,16.80
2019-03-02T04:52:57.164Z,17.55
2019-03-02T04:55:25.790Z,18.43
2019-03-02T04:57:54.448Z,20.70
2019-03-02T05:00:23.130Z,18.90
2019-03-02T05:02:55.093Z,17.07
2019-03-02T05:05:22.147Z,17.80
2019-03-02T05:07:50.764Z,20.13
2019-03-02T05:10:19.409Z,14.65
2019-03-02T05:12:49.671Z,14.73
2019-03-02T05:15:18.531Z,16.27
2019-03-02T05:17:47.185Z,15.97
2019-03-02T05:20:15.808Z,15.53
2019-03-02T05:22:44.494Z,13.75
2019-03-02T05:25:15.740Z,16.33
2019-03-02T05:27:43.547Z,16.67
2019-03-02T05:30:12.299Z,16.87
2019-03-02T05:32:41.031Z,17.87
2019-03-02T05:35:11.938Z,15.83
2019-03-02T05:37:40.712Z,14.80
2019-03-02T05:40:09.663Z,14.15
2019-03-02T05:42:38.322Z,14.28
2019-03-02T05:45:07.170Z,13.60
2019-03-02T05:47:35.835Z,16.25
2019-03-02T05:50:05.038Z,16.57
2019-03-02T05:52:33.703Z,14.83
2019-03-02T05:55:02.370Z,19.90
2019-03-02T05:57:31.075Z,15.58
2019-03-02T06:00:01.817Z,15.75
2019-03-02T06:02:30.190Z,14.33
2019-03-02T06:04:58.844Z,15.30
2019-03-02T06:07:27.574Z,15.15
2019-03-02T06:09:56.195Z,14.17
2019-03-02T06:12:24.870Z,17.30
2019-03-02T06:14:53.524Z,17.27
2019-03-02T06:17:22.217Z,15.30
2019-03-02T06:19:50.874Z,20.10
2019-03-02T06:22:21.148Z,21.27
2019-03-02T06:24:49.884Z,18.00
2019-03-02T06:27:18.530Z,20.30
2019-03-02T06:29:47.167Z,20.87
2019-03-02T06:32:15.821Z,25.50
2019-03-02T06:34:44.450Z,24.10
2019-03-02T06:37:13.101Z,19.13
2019-03-02T06:39:44.459Z,20.90
2019-03-02T06:42:12.428Z,21.97
2019-03-02T06:44:41.053Z,19.43
2019-03-02T06:47:09.739Z,25.47
2019-03-02T06:49:38.374Z,24.27
2019-03-02T06:52:07.056Z,22.17
2019-03-02T06:54:35.704Z,23.13
2019-03-02T06:57:04.454Z,25.08
2019-03-02T06:59:35.871Z,24.25
2019-03-02T07:02:03.452Z,23.92
2019-03-02T07:04:32.101Z,26.68
2019-03-02T07:07:00.833Z,25.45
2019-03-02T07:09:29.487Z,26.20
2019-03-02T07:11:58.117Z,24.30
2019-03-02T07:14:28.818Z,24.50
2019-03-02T07:16:57.282Z,26.07
2019-03-02T07:19:29.595Z,29.80
2019-03-02T07:21:58.254Z,28.25
2019-03-02T07:24:29.403Z,25.55
2019-03-02T07:26:57.394Z,28.90
2019-03-02T07:29:26.019Z,28.55
2019-03-02T07:31:55.075Z,30.57
2019-03-02T07:34:23.703Z,31.93
2019-03-02T07:36:52.334Z,34.35
2019-03-02T07:39:25.095Z,30.92
2019-03-02T07:41:57.948Z,26.68
2019-03-02T07:44:27.261Z,35.30
2019-03-02T07:47:00.266Z,32.03
2019-03-02T07:49:29.902Z,31.37
2019-03-02T07:52:02.874Z,29.93
2019-03-02T07:54:34.239Z,36.23
2019-03-02T07:57:20.206Z,35.50
2019-03-02T08:00:07.403Z,39.83
2019-03-02T08:02:39.885Z,35.68
2019-03-02T08:05:14.518Z,40.28
2019-03-02T08:07:46.055Z,40.83
2019-03-02T08:10:17.726Z,41.80
2019-03-02T08:12:51.131Z,42.00
2019-03-02T08:15:33.993Z,44.30
2019-03-02T08:18:04.605Z,48.02
2019-03-02T08:20:43.330Z,44.98
2019-03-02T08:23:24.248Z,49.80
2019-03-02T08:25:54.281Z,49.90
2019-03-02T08:28:50.991Z,46.40
2019-03-02T08:31:20.907Z,48.23
2019-03-02T08:33:55.169Z,53.65
2019-03-02T08:36:24.239Z,50.08
2019-03-02T08:38:58.270Z,49.80
2019-03-02T08:41:28.426Z,47.98
2019-03-02T08:43:57.010Z,52.97
2019-03-02T08:46:25.655Z,55.55
2019-03-02T08:48:54.342Z,49.83
2019-03-02T08:51:23.057Z,57.67
2019-03-02T08:53:51.754Z,52.10
2019-03-02T08:56:20.504Z,55.23
2019-03-02T08:58:49.153Z,54.40
2019-03-02T09:01:18.736Z,61.25
2019-03-02T09:03:48.224Z,58.63
2019-03-02T09:06:16.949Z,51.33
2019-03-02T09:08:45.627Z,59.60
2019-03-02T09:11:14.371Z,56.10
2019-03-02T09:13:43.182Z,52.93
2019-03-02T09:16:12.081Z,54.00
2019-03-02T09:18:45.318Z,54.25
2019-03-02T09:21:12.345Z,58.00
2019-03-02T09:23:41.722Z,57.03
2019-03-02T09:26:10.375Z,61.77
2019-03-02T09:28:39.046Z,62.30
2019-03-02T09:31:07.854Z,57.20
2019-03-02T09:33:36.506Z,60.52
2019-03-02T09:36:05.225Z,60.63
2019-03-02T09:38:33.974Z,57.35
2019-03-02T09:41:02.605Z,54.70
2019-03-02T09:43:31.444Z,57.43
2019-03-02T09:46:00.280Z,55.85
2019-03-02T09:48:29.014Z,58.23
2019-03-02T09:50:57.632Z,52.30
2019-03-02T09:53:26.277Z,58.63
2019-03-02T09:55:56.218Z,51.47
2019-03-02T09:58:25.830Z,60.10
2019-03-02T10:00:56.813Z,50.17
2019-03-02T10:03:26.825Z,51.50
2019-03-02T10:05:55.470Z,49.70
2019-03-02T10:08:24.243Z,50.80
2019-03-02T10:10:52.882Z,49.13
2019-03-02T10:13:21.743Z,52.10
2019-03-02T10:15:50.496Z,60.00
2019-03-02T10:18:19.218Z,54.23
2019-03-02T10:20:47.869Z,57.63
2019-03-02T10:23:16.734Z,67.03
2019-03-02T10:25:45.387Z,58.83
2019-03-02T10:28:14.051Z,53.23
2019-03-02T10:30:42.767Z,59.43
2019-03-02T10:33:11.469Z,59.40
2019-03-02T10:35:40.146Z,51.53
2019-03-02T10:38:08.905Z,54.47
2019-03-02T10:40:37.726Z,48.30
2019-03-02T10:43:07.409Z,60.07
2019-03-02T10:45:37.829Z,55.10
2019-03-02T10:48:06.584Z,49.00
2019-03-02T10:50:35.305Z,57.17
2019-03-02T10:53:03.945Z,56.07
2019-03-02T10:55:32.626Z,47.43
2019-03-02T10:58:02.320Z,48.83
2019-03-02T11:00:31.724Z,50.90
2019-03-02T11:03:00.551Z,47.20
2019-03-02T11:05:52.933Z,48.93
2019-03-02T11:08:37.479Z,50.00
2019-03-02T11:11:14.852Z,47.43
2019-03-02T11:14:21.071Z,47.90
2019-03-02T11:16:56.845Z,53.80
2019-03-02T11:20:02.747Z,46.30
2019-03-02T11:22:49.289Z,49.40
2019-03-02T11:25:27.020Z,41.57
2019-03-02T11:28:02.264Z,46.20
2019-03-02T11:30:37.786Z,48.00
2019-03-02T11:33:32.323Z,53.90
2019-03-02T11:36:35.029Z,45.63
2019-03-02T11:39:29.120Z,39.80
2019-03-02T11:42:31.805Z,45.33
2019-03-02T11:45:25.116Z,45.90
2019-03-02T11:48:13.650Z,37.43
2019-03-02T11:51:07.575Z,41.93
2019-03-02T11:54:10.363Z,45.63
2019-03-02T11:56:56.604Z,47.53
2019-03-02T11:59:48.322Z,41.87
2019-03-02T12:02:41.850Z,41.57
2019-03-02T12:05:47.702Z,40.07
2019-03-02T12:08:38.431Z,42.00
2019-03-02T12:11:13.914Z,39.03
2019-03-02T12:13:51.898Z,36.87
2019-03-02T12:16:42.415Z,39.20
2019-03-02T12:19:35.885Z,42.30
2019-03-02T12:22:22.076Z,37.80
2019-03-02T12:25:06.613Z,37.03
2019-03-02T12:28:09.454Z,35.20
2019-03-02T12:30:45.766Z,39.17
2019-03-02T12:33:22.120Z,36.90
2019-03-02T12:35:56.139Z,37.93
2019-03-02T12:38:33.032Z,39.30
2019-03-02T12:41:12.220Z,35.13
2019-03-02T12:44:08.256Z,39.30
2019-03-02T12:47:01.831Z,36.27
2019-03-02T12:49:53.717Z,35.20
2019-03-02T12:52:48.115Z,41.43
2019-03-02T12:55:40.505Z,43.90
2019-03-02T12:58:28.161Z,42.80
2019-03-02T13:01:18.580Z,48.50
2019-03-02T13:04:05.659Z,42.80
2019-03-02T13:06:56.881Z,42.20
2019-03-02T13:09:46.669Z,44.80
2019-03-02T13:12:42.826Z,46.83
2019-03-02T13:15:29.570Z,45.00
2019-03-02T13:18:05.144Z,44.80
2019-03-02T13:20:59.217Z,44.03
2019-03-02T13:23:52.723Z,45.40
2019-03-02T13:26:29.628Z,42.10
2019-03-02T13:29:02.936Z,40.67
2019-03-02T13:32:08.667Z,45.37
2019-03-02T13:34:48.232Z,39.50
2019-03-02T13:37:28.637Z,42.43
2019-03-02T13:40:26.377Z,44.17
2019-03-02T13:43:05.088Z,35.83
2019-03-02T13:45:51.789Z,37.13
2019-03-02T13:48:29.747Z,37.30
2019-03-02T13:51:08.017Z,41.17
2019-03-02T13:53:58.985Z,32.20
2019-03-02T13:56:36.519Z,35.53
2019-03-02T13:59:23.051Z,32.73
2019-03-02T14:02:02.142Z,29.90
2019-03-02T14:04:44.890Z,32.90
2019-03-02T14:07:42.305Z,28.63
2019-03-02T14:10:30.479Z,27.53
2019-03-02T14:13:21.422Z,29.97
2019-03-02T14:16:08.000Z,27.97
2019-03-02T14:18:43.751Z,28.33
2019-03-02T14:21:28.856Z,32.83
2019-03-02T14:24:22.406Z,23.80
2019-03-02T14:27:01.685Z,29.07
2019-03-02T14:29:47.163Z,31.87
2019-03-02T14:32:29.532Z,28.90
2019-03-02T14:35:05.206Z,30.63
2019-03-02T14:37:47.865Z,28.83
2019-03-02T14:40:25.038Z,28.13
2019-03-02T14:43:20.044Z,28.40
2019-03-02T14:46:08.627Z,23.23
2019-03-02T14:48:51.116Z,32.07
2019-03-02T14:51:47.797Z,27.80
2019-03-02T14:54:27.311Z,27.17
2019-03-02T14:57:04.584Z,27.60
2019-03-02T14:59:46.863Z,28.93
2019-03-02T15:02:27.647Z,28.37
2019-03-02T15:05:20.375Z,32.47
2019-03-02T15:08:04.821Z,26.63
2019-03-02T15:10:52.470Z,26.30
2019-03-02T15:13:36.665Z,26.23
2019-03-02T15:16:23.158Z,30.60
2019-03-02T15:19:27.147Z,24.80
2019-03-02T15:22:13.761Z,26.13
2019-03-02T15:25:26.075Z,24.03
2019-03-02T15:28:07.778Z,26.03
2019-03-02T15:30:46.299Z,24.50
2019-03-02T15:33:25.961Z,20.17
2019-03-02T15:36:19.689Z,20.80
2019-03-02T15:39:07.319Z,17.50
2019-03-02T15:41:51.151Z,16.97
2019-03-02T15:44:38.805Z,19.47
2019-03-02T15:47:29.310Z,15.67
2019-03-02T15:50:13.551Z,20.43
2019-03-02T15:53:04.764Z,17.80
2019-03-02T15:55:53.325Z,14.73
2019-03-02T15:58:31.983Z,19.27
2019-03-02T16:01:14.152Z,18.47
2019-03-02T16:04:16.827Z,14.93
2019-03-02T16:07:19.678Z,13.20
2019-03-02T16:10:07.228Z,11.77
2019-03-02T16:12:50.182Z,12.53
2019-03-02T16:15:45.234Z,19.23
2019-03-02T16:18:20.913Z,12.80
2019-03-02T16:20:55.678Z,15.23
2019-03-02T16:23:38.676Z,17.97
2019-03-02T16:26:18.218Z,10.83
2019-03-02T16:29:09.835Z,11.00
2019-03-02T16:31:49.677Z,11.07
2019-03-02T16:34:43.980Z,12.93
2019-03-02T16:37:20.446Z,9.97
2019-03-02T16:40:05.481Z,12.47
2019-03-02T16:42:50.953Z,18.13
2019-03-02T16:45:39.745Z,13.97
2019-03-02T16:48:30.149Z,10.10
2019-03-02T16:51:20.611Z,19.50
2019-03-02T16:54:08.265Z,13.00
2019-03-02T16:57:07.971Z,14.70
2019-03-02T17:01:24.832Z,8.30
2019-03-02T17:04:10.925Z,11.47
2019-03-02T17:07:01.445Z,12.33
2019-03-02T17:09:57.882Z,13.40
2019-03-02T17:12:36.204Z,10.73
2019-03-02T17:15:18.939Z,16.37
2019-03-02T17:17:56.459Z,10.57
2019-03-02T17:20:50.327Z,8.33
2019-03-02T17:23:42.577Z,11.70
2019-03-02T17:26:16.463Z,11.77
2019-03-02T17:28:55.212Z,10.50
2019-03-02T17:31:29.804Z,9.90
2019-03-02T17:34:15.939Z,10.87
2019-03-02T17:37:06.414Z,13.33
2019-03-02T17:40:05.893Z,10.47
2019-03-02T17:42:44.850Z,8.50
2019-03-02T17:45:44.770Z,9.47
2019-03-02T17:48:35.320Z,9.93
2019-03-02T17:51:23.064Z,11.70
2019-03-02T17:54:03.639Z,11.90
2019-03-02T17:56:52.810Z,10.27
2019-03-02T17:59:39.777Z,8.93
2019-03-02T18:02:17.043Z,11.67
2019-03-02T18:05:07.944Z,7.90
2019-03-02T18:07:43.288Z,5.13
2019-03-02T18:10:21.342Z,7.93
2019-03-02T18:13:02.269Z,9.77
2019-03-02T18:15:46.741Z,7.40
2019-03-02T18:18:15.583Z,8.27
2019-03-02T18:20:44.433Z,7.40
2019-03-02T18:23:13.136Z,5.70
2019-03-02T18:25:44.799Z,9.30
2019-03-02T18:28:14.074Z,5.63
2019-03-02T18:30:43.721Z,8.80
2019-03-02T18:33:24.395Z,6.27
2019-03-02T18:35:53.561Z,8.00
2019-03-02T18:38:22.269Z,5.20
2019-03-02T18:40:52.181Z,6.70
2019-03-02T18:43:21.047Z,4.23
2019-03-02T18:45:49.808Z,5.20
2019-03-02T18:48:41.620Z,6.37
2019-03-02T18:51:33.965Z,7.10
2019-03-02T18:54:13.635Z,5.60
2019-03-02T18:56:43.697Z,7.23
2019-03-02T18:59:12.384Z,9.53
2019-03-02T19:01:42.280Z,6.80
2019-03-02T19:04:10.975Z,4.30
2019-03-02T19:06:39.793Z,6.23
2019-03-02T19:09:14.629Z,6.27
2019-03-02T19:11:43.514Z,4.87
2019-03-02T19:14:12.304Z,6.83
2019-03-02T19:16:41.206Z,8.93
2019-03-02T19:19:13.293Z,6.10
2019-03-02T19:21:42.096Z,6.83
2019-03-02T19:24:11.207Z,5.93
2019-03-02T19:26:40.010Z,3.93
2019-03-02T19:29:10.850Z,4.60
2019-03-02T19:31:39.708Z,7.77
2019-03-02T19:34:08.480Z,9.00
2019-03-02T19:36:37.331Z,7.40
2019-03-02T19:39:17.159Z,4.60
2019-03-02T19:41:46.038Z,3.87
2019-03-02T19:44:15.939Z,6.40
2019-03-02T19:46:44.751Z,4.50
2019-03-02T19:49:13.630Z,7.47
2019-03-02T19:51:43.275Z,4.30
2019-03-02T19:54:13.364Z,6.77
2019-03-02T19:56:42.291Z,5.63
2019-03-02T19:59:11.052Z,4.17
2019-03-02T20:01:42.429Z,5.87
2019-03-02T20:04:11.315Z,5.93
2019-03-02T20:06:40.113Z,3.50
2019-03-02T20:09:08.927Z,2.90
2019-03-02T20:11:38.028Z,4.57
2019-03-02T20:14:07.848Z,4.13
2019-03-02T20:16:38.693Z,3.40
2019-03-02T20:19:07.525Z,3.40
2019-03-02T20:21:36.383Z,4.40
2019-03-02T20:24:06.436Z,3.80
2019-03-02T20:26:35.400Z,3.53
2019-03-02T20:29:04.384Z,4.17
2019-03-02T20:31:33.313Z,3.60
2019-03-02T20:34:04.096Z,4.13
2019-03-02T20:36:32.932Z,4.47
2019-03-02T20:39:01.707Z,4.87
2019-03-02T20:41:30.628Z,4.17
2019-03-02T20:43:59.864Z,3.30
2019-03-02T20:46:29.480Z,7.93
2019-03-02T20:49:01.089Z,4.73
2019-03-02T20:51:29.938Z,4.03
2019-03-02T20:53:59.161Z,6.23
2019-03-02T20:56:27.853Z,6.43
2019-03-02T20:58:57.971Z,4.53
2019-03-02T21:01:29.185Z,5.43
2019-03-02T21:03:58.005Z,4.10
2019-03-02T21:06:30.548Z,4.87
2019-03-02T21:09:10.616Z,4.43
2019-03-02T21:11:39.937Z,4.30
2019-03-02T21:14:09.224Z,7.90
2019-03-02T21:16:38.177Z,6.53
2019-03-02T21:19:09.062Z,5.07
2019-03-02T21:21:37.897Z,3.97
2019-03-02T21:24:06.699Z,5.07
2019-03-02T21:26:35.488Z,3.90
2019-03-02T21:29:04.361Z,3.50
2019-03-02T21:31:33.095Z,4.40
2019-03-02T21:34:02.049Z,5.13
2019-03-02T21:36:31.005Z,4.20
2019-03-02T21:38:59.839Z,4.63
2019-03-02T21:41:28.655Z,4.83
2019-03-02T21:44:00.146Z,4.70
2019-03-02T21:46:28.912Z,4.10
2019-03-02T21:48:58.140Z,5.37
2019-03-02T21:51:26.931Z,5.30
2019-03-02T21:53:55.840Z,4.50
2019-03-02T21:56:26.143Z,3.87
2019-03-02T21:58:55.014Z,5.30
2019-03-02T22:01:24.011Z,3.50
2019-03-02T22:03:52.824Z,4.07
2019-03-02T22:06:23.787Z,4.30
2019-03-02T22:08:55.064Z,5.30
2019-03-02T22:11:23.874Z,4.77
2019-03-02T22:13:53.602Z,4.50
2019-03-02T22:16:23.365Z,4.30
2019-03-02T22:18:52.227Z,5.30
2019-03-02T22:21:21.442Z,5.00
2019-03-02T22:23:50.191Z,5.03
2019-03-02T22:26:19.030Z,5.77
2019-03-02T22:28:49.169Z,4.80
2019-03-02T22:31:20.711Z,5.60
2019-03-02T22:33:49.516Z,6.43
2019-03-02T22:36:18.315Z,5.93
2019-03-02T22:38:48.408Z,6.70
2019-03-02T22:41:17.307Z,5.33
2019-03-02T22:43:46.665Z,7.30
2019-03-02T22:46:19.256Z,5.60
2019-03-02T22:48:50.854Z,6.50
2019-03-02T22:51:29.407Z,6.93
2019-03-02T22:53:58.142Z,7.10
2019-03-02T22:56:28.192Z,9.90
2019-03-02T22:58:56.050Z,9.83
2019-03-02T23:02:15.638Z,8.90
2019-03-02T23:04:44.898Z,10.00
2019-03-02T23:07:14.669Z,9.27
2019-03-02T23:09:43.881Z,8.83
2019-03-02T23:12:12.952Z,8.57
2019-03-02T23:14:41.806Z,8.60
2019-03-02T23:17:10.686Z,10.43
2019-03-02T23:19:40.390Z,9.97
2019-03-02T23:22:09.260Z,9.03
2019-03-02T23:24:38.904Z,11.20
2019-03-02T23:27:08.652Z,10.87
2019-03-02T23:29:37.584Z,10.50
2019-03-02T23:32:06.525Z,11.90
2019-03-02T23:34:37.356Z,12.50
2019-03-02T23:37:05.779Z,14.13
2019-03-02T23:39:39.012Z,9.70
2019-03-02T23:42:07.823Z,11.80
2019-03-02T23:44:36.646Z,13.03
2019-03-02T23:47:05.469Z,9.67
2019-03-02T23:49:34.423Z,11.43
2019-03-02T23:52:03.431Z,9.30
2019-03-02T23:54:33.578Z,10.27
2019-03-02T23:57:02.459Z,11.77
2019-03-02T23:59:31.224Z,10.00
